Spabunker 21 — EAFF — position and weather

sailwx.info

Track history (hours):
 
Tides and Currents Weather Stations Pressure Air Temp Water Temp Dewpoint Dewpoint Depression Visibility Wind Speed Wind Dir Waves Ship Positions

Spabunker 21

Last reported at 2017-Jan-22 05:33 UTC. Time now 2017-Jan-22 05:58 UTC.
Position N 28°08' W 015°25'.

Length 82 m; draft 0.5 m.

Type: Ship. MMSI: 224976000.

Date/timePositionNaut miles runAvg speedWind from/ knotsBaromVisibWave heightAir tempDewpointWater temp
2017-Jan-22 05:33N 28°08' W 015°25'0 0.0
2017-Jan-22 04:33N 28°08' W 015°25'0 0.0
2017-Jan-22 03:33N 28°08' W 015°25'0 0.0
2017-Jan-22 02:34N 28°08' W 015°25'0 0.0
2017-Jan-22 01:34N 28°08' W 015°25'0 0.0
2017-Jan-22 00:34N 28°08' W 015°25'0 0.0
2017-Jan-21 23:34N 28°08' W 015°25'0 0.0
2017-Jan-21 22:34N 28°08' W 015°25'0 0.0
2017-Jan-21 21:33N 28°08' W 015°25'0 0.0
2017-Jan-21 20:33N 28°08' W 015°25'0 0.0
2017-Jan-21 19:33N 28°08' W 015°25'0 0.0
2017-Jan-21 18:33N 28°08' W 015°25'0 0.0
2017-Jan-21 17:33N 28°08' W 015°25'0 0.0
2017-Jan-21 16:33N 28°08' W 015°25'0 0.0
2017-Jan-21 15:33N 28°08' W 015°25'0 0.0
2017-Jan-21 14:33N 28°08' W 015°25'0 0.0
2017-Jan-21 13:33N 28°08' W 015°25'0 0.0
2017-Jan-21 12:34N 28°08' W 015°25'0 0.3
2017-Jan-21 11:34N 28°08' W 015°25'0 0.0
2017-Jan-21 10:33N 28°08' W 015°25'0 0.0
2017-Jan-21 09:34N 28°08' W 015°25'0 0.0
2017-Jan-21 08:34N 28°08' W 015°25'1 0.6
2017-Jan-21 07:34N 28°08' W 015°25'1 0.5
2017-Jan-21 06:34N 28°08' W 015°25'0 0.0
2017-Jan-21 05:33N 28°08' W 015°25'0 0.0
2017-Jan-21 04:33N 28°08' W 015°25'0 0.0
2017-Jan-21 03:33N 28°08' W 015°25'0 0.0
2017-Jan-21 02:33N 28°08' W 015°25'0 0.0
2017-Jan-21 01:33N 28°08' W 015°25'0 0.0
2017-Jan-21 00:33N 28°08' W 015°25'0 0.0
2017-Jan-20 23:33N 28°08' W 015°25'0 0.0
2017-Jan-20 22:34N 28°08' W 015°25'0 0.0
2017-Jan-20 21:34N 28°08' W 015°25'0 0.0
2017-Jan-20 20:34N 28°08' W 015°25'2 2.0
2017-Jan-20 19:33N 28°07' W 015°24'0 0.0
2017-Jan-20 18:34N 28°07' W 015°24'0 0.0
2017-Jan-20 17:33N 28°07' W 015°24'2 1.6
2017-Jan-20 16:33N 28°08' W 015°25'0 0.4
2017-Jan-20 15:33N 28°08' W 015°25'0 0.0
2017-Jan-20 14:33N 28°08' W 015°25'0 0.0
2017-Jan-20 13:33N 28°08' W 015°25'0 0.0
2017-Jan-20 12:33N 28°08' W 015°25'0 0.0
2017-Jan-20 11:33N 28°08' W 015°25'0 0.0
2017-Jan-20 10:33N 28°08' W 015°25'0 0.0
2017-Jan-20 09:33N 28°08' W 015°25'0 0.0
2017-Jan-20 08:34N 28°09' W 015°25'0 0.0
2017-Jan-20 07:34N 28°09' W 015°25'0 0.0
2017-Jan-20 06:34N 28°09' W 015°25'0 0.0
2017-Jan-20 05:34N 28°09' W 015°25'0 0.0
2017-Jan-20 04:34N 28°09' W 015°25'0 0.0
2017-Jan-20 03:33N 28°09' W 015°25'0 0.0
2017-Jan-20 02:33N 28°09' W 015°25'0 0.0
2017-Jan-20 01:33N 28°09' W 015°25'0 0.0
2017-Jan-20 00:33N 28°09' W 015°25'0 0.0
2017-Jan-19 23:33N 28°09' W 015°25'3 2.6
2017-Jan-19 22:33N 28°06' W 015°24'0 0.2
2017-Jan-19 21:33N 28°06' W 015°24'0 0.0
2017-Jan-19 20:33N 28°06' W 015°24'0 0.0
2017-Jan-19 19:33N 28°06' W 015°24'0 0.0
2017-Jan-19 18:34N 28°06' W 015°24'0 0.0
2017-Jan-19 17:34N 28°06' W 015°24'0 0.0
2017-Jan-19 16:34N 28°06' W 015°24'0 0.0
2017-Jan-19 15:34N 28°06' W 015°24'1 0.7
2017-Jan-19 14:34N 28°06' W 015°24'0 0.3
2017-Jan-19 13:34N 28°07' W 015°24'0 0.0
2017-Jan-19 12:34N 28°07' W 015°24'0 0.0
2017-Jan-19 11:33N 28°07' W 015°24'0 0.0
2017-Jan-19 10:33N 28°07' W 015°24'2 1.8
2017-Jan-19 09:33N 28°08' W 015°25'0 0.1
2017-Jan-19 08:33N 28°08' W 015°25'0 0.0
2017-Jan-19 07:33N 28°08' W 015°25'0 0.0
2017-Jan-19 06:33N 28°08' W 015°25'0 0.0
2017-Jan-19 05:33N 28°08' W 015°25'0 0.0
2017-Jan-19 04:34N 28°08' W 015°25'0 0.0
2017-Jan-19 03:34N 28°08' W 015°25'0 0.0
2017-Jan-19 02:33N 28°08' W 015°25'0 0.0
2017-Jan-19 01:33N 28°08' W 015°25'0 0.0
2017-Jan-19 00:33N 28°08' W 015°25'0 0.0
2017-Jan-18 23:34N 28°08' W 015°25'0 0.0
2017-Jan-18 22:34N 28°08' W 015°25'0 0.0
2017-Jan-18 21:33N 28°08' W 015°25'0 0.0
2017-Jan-18 20:33N 28°08' W 015°25'0 0.2
2017-Jan-18 19:33N 28°08' W 015°25'0 0.0
2017-Jan-18 18:33N 28°08' W 015°25'0 0.0
2017-Jan-18 17:33N 28°08' W 015°25'0 0.2
2017-Jan-18 16:33N 28°08' W 015°25'0 0.2
2017-Jan-18 15:33N 28°08' W 015°25'0 0.0
2017-Jan-18 14:34N 28°08' W 015°25'0 0.0
2017-Jan-18 13:34N 28°08' W 015°25'0 0.0
2017-Jan-18 12:33N 28°08' W 015°25'0 0.0
2017-Jan-18 11:34N 28°08' W 015°25'0 0.0
2017-Jan-18 10:34N 28°08' W 015°25'3 0.2
2017-Jan-17 16:21N 28°06' W 015°24'0 0.0
2017-Jan-17 15:33N 28°06' W 015°24'0 0.0
2017-Jan-17 14:33N 28°06' W 015°24'1 1.1
2017-Jan-17 13:33N 28°07' W 015°24'0 0.0
2017-Jan-17 12:33N 28°07' W 015°24'0 0.0
2017-Jan-17 11:33N 28°07' W 015°24'2 1.8
2017-Jan-17 10:34N 28°08' W 015°25'0 0.0
2017-Jan-17 09:34N 28°08' W 015°25'0 0.0
2017-Jan-17 08:33N 28°08' W 015°25'0 0.0
2017-Jan-17 07:33N 28°08' W 015°25'0 0.0
2017-Jan-17 06:34N 28°08' W 015°25'0 0.0
2017-Jan-17 05:34N 28°08' W 015°25'0 0.0
2017-Jan-17 04:34N 28°08' W 015°25'0 0.0
2017-Jan-17 03:33N 28°08' W 015°25'0 0.0
2017-Jan-17 02:33N 28°08' W 015°25'1 1.4
2017-Jan-17 01:33N 28°07' W 015°25'2 1.5
2017-Jan-17 00:33N 28°09' W 015°25'0 0.0
2017-Jan-16 23:33N 28°09' W 015°25'0 0.0
2017-Jan-16 22:33N 28°09' W 015°25'0 0.4
2017-Jan-16 21:34N 28°08' W 015°25'0 0.0
2017-Jan-16 20:34N 28°08' W 015°25'0 0.0
2017-Jan-16 19:34N 28°08' W 015°25'0 0.0
2017-Jan-16 18:34N 28°08' W 015°25'0 0.0
2017-Jan-16 17:33N 28°08' W 015°25'0 0.0
2017-Jan-16 16:34N 28°08' W 015°25'0 0.0
2017-Jan-16 15:33N 28°08' W 015°25'0 0.0
2017-Jan-16 14:34N 28°08' W 015°25'0 0.0
2017-Jan-16 13:33N 28°08' W 015°25'0 0.0
2017-Jan-16 12:33N 28°08' W 015°25'0 0.0
2017-Jan-16 11:33N 28°08' W 015°25'2 1.9
2017-Jan-16 10:33N 28°07' W 015°24'2 1.9
2017-Jan-16 09:33N 28°08' W 015°25'0 0.0
2017-Jan-16 08:33N 28°08' W 015°25'0 0.0
2017-Jan-16 07:33N 28°08' W 015°25'0 0.0
2017-Jan-16 06:34N 28°08' W 015°25'0 0.0
2017-Jan-16 05:33N 28°08' W 015°25'0 0.0
2017-Jan-16 04:33N 28°08' W 015°25'0 0.0
2017-Jan-16 03:34N 28°08' W 015°25'0 0.0
2017-Jan-16 02:34N 28°08' W 015°25'0 0.0
2017-Jan-16 01:33N 28°08' W 015°25'0 0.0
2017-Jan-16 00:34N 28°08' W 015°25'0 0.0
2017-Jan-15 23:33N 28°08' W 015°25'0 0.0
2017-Jan-15 22:33N 28°08' W 015°25'0 0.0
2017-Jan-15 21:33N 28°08' W 015°25'0 0.0
2017-Jan-15 20:33N 28°08' W 015°25'0 0.0
2017-Jan-15 19:33N 28°08' W 015°25'0 0.0
2017-Jan-15 18:33N 28°08' W 015°25'0 0.0
2017-Jan-15 17:33N 28°08' W 015°25'0 0.0
2017-Jan-15 16:34N 28°08' W 015°25'0 0.0
2017-Jan-15 15:33N 28°08' W 015°25'0 0.0
2017-Jan-15 14:33N 28°08' W 015°25'0 0.0
2017-Jan-15 13:33N 28°08' W 015°25'0 0.0
2017-Jan-15 12:34N 28°08' W 015°25'0 0.0
2017-Jan-15 11:34N 28°08' W 015°25'0 0.0
2017-Jan-15 10:34N 28°08' W 015°25'0 0.0
2017-Jan-15 09:33N 28°08' W 015°25'0 0.0
2017-Jan-15 08:33N 28°08' W 015°25'0 0.0
2017-Jan-15 07:33N 28°08' W 015°25'0 0.0
2017-Jan-15 06:33N 28°08' W 015°25'0 0.0
2017-Jan-15 05:33N 28°08' W 015°25'0 0.0
2017-Jan-15 04:33N 28°08' W 015°25'0 0.0
2017-Jan-15 03:33N 28°08' W 015°25'0 0.0
2017-Jan-15 02:34N 28°08' W 015°25'0 0.0
2017-Jan-15 01:34N 28°08' W 015°25'0 0.0
2017-Jan-15 00:34N 28°08' W 015°25'0 0.0
2017-Jan-14 23:34N 28°08' W 015°25'0 0.0
2017-Jan-14 22:34N 28°08' W 015°25'2 1.8
2017-Jan-14 21:34N 28°07' W 015°24'0 0.0
2017-Jan-14 20:34N 28°07' W 015°24'0 0.0
2017-Jan-14 19:33N 28°07' W 015°24'0 0.0
2017-Jan-14 18:33N 28°07' W 015°24'0 0.0
2017-Jan-14 17:33N 28°07' W 015°24'2 1.8
2017-Jan-14 16:33N 28°08' W 015°25'0 0.0
2017-Jan-14 15:33N 28°08' W 015°25'0 0.0
2017-Jan-14 14:33N 28°08' W 015°25'0 0.0
2017-Jan-14 13:33N 28°08' W 015°25'0 0.0
2017-Jan-14 12:34N 28°08' W 015°25'0 0.0
2017-Jan-14 11:34N 28°08' W 015°25'0 0.0
2017-Jan-14 10:34N 28°08' W 015°25'0 0.0
2017-Jan-14 09:34N 28°08' W 015°25'0 0.0
2017-Jan-14 08:33N 28°08' W 015°25'0 0.0
2017-Jan-14 07:34N 28°08' W 015°25'0 0.0
2017-Jan-14 06:34N 28°08' W 015°25'0 0.0
2017-Jan-14 05:33N 28°08' W 015°25'0 0.0
2017-Jan-14 04:33N 28°08' W 015°25'0 0.0
2017-Jan-14 03:33N 28°08' W 015°25'0 0.0
2017-Jan-13 23:33N 28°08' W 015°25'0 0.0
2017-Jan-13 22:33N 28°08' W 015°25'0 0.0
2017-Jan-13 21:33N 28°08' W 015°25'1 1.4
2017-Jan-13 20:34N 28°08' W 015°23'1 1.4
2017-Jan-13 19:34N 28°08' W 015°25'0 0.0
2017-Jan-13 18:34N 28°08' W 015°25'0 0.0
2017-Jan-13 17:34N 28°08' W 015°25'0 0.1
2017-Jan-13 16:34N 28°09' W 015°25'0 0.2
2017-Jan-13 15:33N 28°09' W 015°25'0 0.0
2017-Jan-13 14:33N 28°09' W 015°25'0 0.0
2017-Jan-13 13:33N 28°09' W 015°25'0 0.3
2017-Jan-13 12:33N 28°08' W 015°25'0 0.0
2017-Jan-13 11:33N 28°08' W 015°25'0 0.0
2017-Jan-13 10:33N 28°08' W 015°25'1 1.3
2017-Jan-13 09:33N 28°08' W 015°24'1 0.9
2017-Jan-13 08:34N 28°08' W 015°23'2 0.2
2017-Jan-12 22:11N 28°08' W 015°25'0 0.0
2017-Jan-12 21:33N 28°08' W 015°25'1 0.8
2017-Jan-12 20:33N 28°08' W 015°25'0 0.3
2017-Jan-12 19:33N 28°07' W 015°25'0 0.0
2017-Jan-12 18:34N 28°07' W 015°25'0 0.0
2017-Jan-12 17:33N 28°07' W 015°25'0 0.5
2017-Jan-12 16:33N 28°08' W 015°25'1 0.6
2017-Jan-12 15:34N 28°08' W 015°25'0 0.0
2017-Jan-12 14:34N 28°08' W 015°25'0 0.0
2017-Jan-12 11:30N 28°08' W 015°25'0 0.0
2017-Jan-12 10:33N 28°08' W 015°25'0 0.0
2017-Jan-12 09:33N 28°08' W 015°25'0 0.0
2017-Jan-12 08:33N 28°08' W 015°25'0 0.0
2017-Jan-12 07:33N 28°08' W 015°25'0 0.0
2017-Jan-12 06:33N 28°08' W 015°25'  
Track history (hours):
 
Tides and Currents Weather Stations Pressure Air Temp Water Temp Dewpoint Dewpoint Depression Visibility Wind Speed Wind Dir Waves Ship Positions

Spabunker 21

Last reported at 2017-Jan-22 05:33 UTC. Time now 2017-Jan-22 05:58 UTC.
Position N 28°08' W 015°25'.

Length 82 m; draft 0.5 m.

Type: Ship. MMSI: 224976000.

Date/timePositionNaut miles runAvg speedWind from/ knotsBaromVisibWave heightAir tempDewpointWater temp
2017-Jan-22 05:33N 28°08' W 015°25'0 0.0
2017-Jan-22 04:33N 28°08' W 015°25'0 0.0
2017-Jan-22 03:33N 28°08' W 015°25'0 0.0
2017-Jan-22 02:34N 28°08' W 015°25'0 0.0
2017-Jan-22 01:34N 28°08' W 015°25'0 0.0
2017-Jan-22 00:34N 28°08' W 015°25'0 0.0
2017-Jan-21 23:34N 28°08' W 015°25'0 0.0
2017-Jan-21 22:34N 28°08' W 015°25'0 0.0
2017-Jan-21 21:33N 28°08' W 015°25'0 0.0
2017-Jan-21 20:33N 28°08' W 015°25'0 0.0
2017-Jan-21 19:33N 28°08' W 015°25'0 0.0
2017-Jan-21 18:33N 28°08' W 015°25'0 0.0
2017-Jan-21 17:33N 28°08' W 015°25'0 0.0
2017-Jan-21 16:33N 28°08' W 015°25'0 0.0
2017-Jan-21 15:33N 28°08' W 015°25'0 0.0
2017-Jan-21 14:33N 28°08' W 015°25'0 0.0
2017-Jan-21 13:33N 28°08' W 015°25'0 0.0
2017-Jan-21 12:34N 28°08' W 015°25'0 0.3
2017-Jan-21 11:34N 28°08' W 015°25'0 0.0
2017-Jan-21 10:33N 28°08' W 015°25'0 0.0
2017-Jan-21 09:34N 28°08' W 015°25'0 0.0
2017-Jan-21 08:34N 28°08' W 015°25'1 0.6
2017-Jan-21 07:34N 28°08' W 015°25'1 0.5
2017-Jan-21 06:34N 28°08' W 015°25'0 0.0
2017-Jan-21 05:33N 28°08' W 015°25'0 0.0
2017-Jan-21 04:33N 28°08' W 015°25'0 0.0
2017-Jan-21 03:33N 28°08' W 015°25'0 0.0
2017-Jan-21 02:33N 28°08' W 015°25'0 0.0
2017-Jan-21 01:33N 28°08' W 015°25'0 0.0
2017-Jan-21 00:33N 28°08' W 015°25'0 0.0
2017-Jan-20 23:33N 28°08' W 015°25'0 0.0
2017-Jan-20 22:34N 28°08' W 015°25'0 0.0
2017-Jan-20 21:34N 28°08' W 015°25'0 0.0
2017-Jan-20 20:34N 28°08' W 015°25'2 2.0
2017-Jan-20 19:33N 28°07' W 015°24'0 0.0
2017-Jan-20 18:34N 28°07' W 015°24'0 0.0
2017-Jan-20 17:33N 28°07' W 015°24'2 1.6
2017-Jan-20 16:33N 28°08' W 015°25'0 0.4
2017-Jan-20 15:33N 28°08' W 015°25'0 0.0
2017-Jan-20 14:33N 28°08' W 015°25'0 0.0
2017-Jan-20 13:33N 28°08' W 015°25'0 0.0
2017-Jan-20 12:33N 28°08' W 015°25'0 0.0
2017-Jan-20 11:33N 28°08' W 015°25'0 0.0
2017-Jan-20 10:33N 28°08' W 015°25'0 0.0
2017-Jan-20 09:33N 28°08' W 015°25'0 0.0
2017-Jan-20 08:34N 28°09' W 015°25'0 0.0
2017-Jan-20 07:34N 28°09' W 015°25'0 0.0
2017-Jan-20 06:34N 28°09' W 015°25'0 0.0
2017-Jan-20 05:34N 28°09' W 015°25'0 0.0
2017-Jan-20 04:34N 28°09' W 015°25'0 0.0
2017-Jan-20 03:33N 28°09' W 015°25'0 0.0
2017-Jan-20 02:33N 28°09' W 015°25'0 0.0
2017-Jan-20 01:33N 28°09' W 015°25'0 0.0
2017-Jan-20 00:33N 28°09' W 015°25'0 0.0
2017-Jan-19 23:33N 28°09' W 015°25'3 2.6
2017-Jan-19 22:33N 28°06' W 015°24'0 0.2
2017-Jan-19 21:33N 28°06' W 015°24'0 0.0
2017-Jan-19 20:33N 28°06' W 015°24'0 0.0
2017-Jan-19 19:33N 28°06' W 015°24'0 0.0
2017-Jan-19 18:34N 28°06' W 015°24'0 0.0
2017-Jan-19 17:34N 28°06' W 015°24'0 0.0
2017-Jan-19 16:34N 28°06' W 015°24'0 0.0
2017-Jan-19 15:34N 28°06' W 015°24'1 0.7
2017-Jan-19 14:34N 28°06' W 015°24'0 0.3
2017-Jan-19 13:34N 28°07' W 015°24'0 0.0
2017-Jan-19 12:34N 28°07' W 015°24'0 0.0
2017-Jan-19 11:33N 28°07' W 015°24'0 0.0
2017-Jan-19 10:33N 28°07' W 015°24'2 1.8
2017-Jan-19 09:33N 28°08' W 015°25'0 0.1
2017-Jan-19 08:33N 28°08' W 015°25'0 0.0
2017-Jan-19 07:33N 28°08' W 015°25'0 0.0
2017-Jan-19 06:33N 28°08' W 015°25'0 0.0
2017-Jan-19 05:33N 28°08' W 015°25'0 0.0
2017-Jan-19 04:34N 28°08' W 015°25'0 0.0
2017-Jan-19 03:34N 28°08' W 015°25'0 0.0
2017-Jan-19 02:33N 28°08' W 015°25'0 0.0
2017-Jan-19 01:33N 28°08' W 015°25'0 0.0
2017-Jan-19 00:33N 28°08' W 015°25'0 0.0
2017-Jan-18 23:34N 28°08' W 015°25'0 0.0
2017-Jan-18 22:34N 28°08' W 015°25'0 0.0
2017-Jan-18 21:33N 28°08' W 015°25'0 0.0
2017-Jan-18 20:33N 28°08' W 015°25'0 0.2
2017-Jan-18 19:33N 28°08' W 015°25'0 0.0
2017-Jan-18 18:33N 28°08' W 015°25'0 0.0
2017-Jan-18 17:33N 28°08' W 015°25'0 0.2
2017-Jan-18 16:33N 28°08' W 015°25'0 0.2
2017-Jan-18 15:33N 28°08' W 015°25'0 0.0
2017-Jan-18 14:34N 28°08' W 015°25'0 0.0
2017-Jan-18 13:34N 28°08' W 015°25'0 0.0
2017-Jan-18 12:33N 28°08' W 015°25'0 0.0
2017-Jan-18 11:34N 28°08' W 015°25'0 0.0
2017-Jan-18 10:34N 28°08' W 015°25'3 0.2
2017-Jan-17 16:21N 28°06' W 015°24'0 0.0
2017-Jan-17 15:33N 28°06' W 015°24'0 0.0
2017-Jan-17 14:33N 28°06' W 015°24'1 1.1
2017-Jan-17 13:33N 28°07' W 015°24'0 0.0
2017-Jan-17 12:33N 28°07' W 015°24'0 0.0
2017-Jan-17 11:33N 28°07' W 015°24'2 1.8
2017-Jan-17 10:34N 28°08' W 015°25'0 0.0
2017-Jan-17 09:34N 28°08' W 015°25'0 0.0
2017-Jan-17 08:33N 28°08' W 015°25'0 0.0
2017-Jan-17 07:33N 28°08' W 015°25'0 0.0
2017-Jan-17 06:34N 28°08' W 015°25'0 0.0
2017-Jan-17 05:34N 28°08' W 015°25'0 0.0
2017-Jan-17 04:34N 28°08' W 015°25'0 0.0
2017-Jan-17 03:33N 28°08' W 015°25'0 0.0
2017-Jan-17 02:33N 28°08' W 015°25'1 1.4
2017-Jan-17 01:33N 28°07' W 015°25'2 1.5
2017-Jan-17 00:33N 28°09' W 015°25'0 0.0
2017-Jan-16 23:33N 28°09' W 015°25'0 0.0
2017-Jan-16 22:33N 28°09' W 015°25'0 0.4
2017-Jan-16 21:34N 28°08' W 015°25'0 0.0
2017-Jan-16 20:34N 28°08' W 015°25'0 0.0
2017-Jan-16 19:34N 28°08' W 015°25'0 0.0
2017-Jan-16 18:34N 28°08' W 015°25'0 0.0
2017-Jan-16 17:33N 28°08' W 015°25'0 0.0
2017-Jan-16 16:34N 28°08' W 015°25'0 0.0
2017-Jan-16 15:33N 28°08' W 015°25'0 0.0
2017-Jan-16 14:34N 28°08' W 015°25'0 0.0
2017-Jan-16 13:33N 28°08' W 015°25'0 0.0
2017-Jan-16 12:33N 28°08' W 015°25'0 0.0
2017-Jan-16 11:33N 28°08' W 015°25'2 1.9
2017-Jan-16 10:33N 28°07' W 015°24'2 1.9
2017-Jan-16 09:33N 28°08' W 015°25'0 0.0
2017-Jan-16 08:33N 28°08' W 015°25'0 0.0
2017-Jan-16 07:33N 28°08' W 015°25'0 0.0
2017-Jan-16 06:34N 28°08' W 015°25'0 0.0
2017-Jan-16 05:33N 28°08' W 015°25'0 0.0
2017-Jan-16 04:33N 28°08' W 015°25'0 0.0
2017-Jan-16 03:34N 28°08' W 015°25'0 0.0
2017-Jan-16 02:34N 28°08' W 015°25'0 0.0
2017-Jan-16 01:33N 28°08' W 015°25'0 0.0
2017-Jan-16 00:34N 28°08' W 015°25'0 0.0
2017-Jan-15 23:33N 28°08' W 015°25'0 0.0
2017-Jan-15 22:33N 28°08' W 015°25'0 0.0
2017-Jan-15 21:33N 28°08' W 015°25'0 0.0
2017-Jan-15 20:33N 28°08' W 015°25'0 0.0
2017-Jan-15 19:33N 28°08' W 015°25'0 0.0
2017-Jan-15 18:33N 28°08' W 015°25'0 0.0
2017-Jan-15 17:33N 28°08' W 015°25'0 0.0
2017-Jan-15 16:34N 28°08' W 015°25'0 0.0
2017-Jan-15 15:33N 28°08' W 015°25'0 0.0
2017-Jan-15 14:33N 28°08' W 015°25'0 0.0
2017-Jan-15 13:33N 28°08' W 015°25'0 0.0
2017-Jan-15 12:34N 28°08' W 015°25'0 0.0
2017-Jan-15 11:34N 28°08' W 015°25'0 0.0
2017-Jan-15 10:34N 28°08' W 015°25'0 0.0
2017-Jan-15 09:33N 28°08' W 015°25'0 0.0
2017-Jan-15 08:33N 28°08' W 015°25'0 0.0
2017-Jan-15 07:33N 28°08' W 015°25'0 0.0
2017-Jan-15 06:33N 28°08' W 015°25'0 0.0
2017-Jan-15 05:33N 28°08' W 015°25'0 0.0
2017-Jan-15 04:33N 28°08' W 015°25'0 0.0
2017-Jan-15 03:33N 28°08' W 015°25'0 0.0
2017-Jan-15 02:34N 28°08' W 015°25'0 0.0
2017-Jan-15 01:34N 28°08' W 015°25'0 0.0
2017-Jan-15 00:34N 28°08' W 015°25'0 0.0
2017-Jan-14 23:34N 28°08' W 015°25'0 0.0
2017-Jan-14 22:34N 28°08' W 015°25'2 1.8
2017-Jan-14 21:34N 28°07' W 015°24'0 0.0
2017-Jan-14 20:34N 28°07' W 015°24'0 0.0
2017-Jan-14 19:33N 28°07' W 015°24'0 0.0
2017-Jan-14 18:33N 28°07' W 015°24'0 0.0
2017-Jan-14 17:33N 28°07' W 015°24'2 1.8
2017-Jan-14 16:33N 28°08' W 015°25'0 0.0
2017-Jan-14 15:33N 28°08' W 015°25'0 0.0
2017-Jan-14 14:33N 28°08' W 015°25'0 0.0
2017-Jan-14 13:33N 28°08' W 015°25'0 0.0
2017-Jan-14 12:34N 28°08' W 015°25'0 0.0
2017-Jan-14 11:34N 28°08' W 015°25'0 0.0
2017-Jan-14 10:34N 28°08' W 015°25'0 0.0
2017-Jan-14 09:34N 28°08' W 015°25'0 0.0
2017-Jan-14 08:33N 28°08' W 015°25'0 0.0
2017-Jan-14 07:34N 28°08' W 015°25'0 0.0
2017-Jan-14 06:34N 28°08' W 015°25'0 0.0
2017-Jan-14 05:33N 28°08' W 015°25'0 0.0
2017-Jan-14 04:33N 28°08' W 015°25'0 0.0
2017-Jan-14 03:33N 28°08' W 015°25'0 0.0
2017-Jan-13 23:33N 28°08' W 015°25'0 0.0
2017-Jan-13 22:33N 28°08' W 015°25'0 0.0
2017-Jan-13 21:33N 28°08' W 015°25'1 1.4
2017-Jan-13 20:34N 28°08' W 015°23'1 1.4
2017-Jan-13 19:34N 28°08' W 015°25'0 0.0
2017-Jan-13 18:34N 28°08' W 015°25'0 0.0
2017-Jan-13 17:34N 28°08' W 015°25'0 0.1
2017-Jan-13 16:34N 28°09' W 015°25'0 0.2
2017-Jan-13 15:33N 28°09' W 015°25'0 0.0
2017-Jan-13 14:33N 28°09' W 015°25'0 0.0
2017-Jan-13 13:33N 28°09' W 015°25'0 0.3
2017-Jan-13 12:33N 28°08' W 015°25'0 0.0
2017-Jan-13 11:33N 28°08' W 015°25'0 0.0
2017-Jan-13 10:33N 28°08' W 015°25'1 1.3
2017-Jan-13 09:33N 28°08' W 015°24'1 0.9
2017-Jan-13 08:34N 28°08' W 015°23'2 0.2
2017-Jan-12 22:11N 28°08' W 015°25'0 0.0
2017-Jan-12 21:33N 28°08' W 015°25'1 0.8
2017-Jan-12 20:33N 28°08' W 015°25'0 0.3
2017-Jan-12 19:33N 28°07' W 015°25'0 0.0
2017-Jan-12 18:34N 28°07' W 015°25'0 0.0
2017-Jan-12 17:33N 28°07' W 015°25'0 0.5
2017-Jan-12 16:33N 28°08' W 015°25'1 0.6
2017-Jan-12 15:34N 28°08' W 015°25'0 0.0
2017-Jan-12 14:34N 28°08' W 015°25'0 0.0
2017-Jan-12 11:30N 28°08' W 015°25'0 0.0
2017-Jan-12 10:33N 28°08' W 015°25'0 0.0
2017-Jan-12 09:33N 28°08' W 015°25'0 0.0
2017-Jan-12 08:33N 28°08' W 015°25'0 0.0
2017-Jan-12 07:33N 28°08' W 015°25'0 0.0
2017-Jan-12 06:33N 28°08' W 015°25'  

Dump ship's entire track history